createdAt,value
2022-09-11T00:00:27.731Z,14.2
2022-09-11T00:06:33.893Z,14.2
2022-09-11T00:08:38.979Z,14.2
2022-09-11T00:12:43.068Z,14.2
2022-09-11T00:14:45.115Z,14.2
2022-09-11T00:16:47.278Z,14.2
2022-09-11T00:22:56.365Z,14.2
2022-09-11T00:24:58.404Z,14.1
2022-09-11T00:27:00.426Z,14.1
2022-09-11T00:29:02.493Z,14.1
2022-09-11T00:31:04.595Z,14
2022-09-11T00:33:06.571Z,14
2022-09-11T00:35:08.628Z,13.9
2022-09-11T00:37:13.737Z,13.8
2022-09-11T00:39:15.783Z,13.7
2022-09-11T00:41:17.830Z,13.7
2022-09-11T00:46:24.477Z,13.6
2022-09-11T00:52:33.671Z,13.5
2022-09-11T00:54:35.703Z,13.4
2022-09-11T00:58:39.804Z,13.4
2022-09-11T01:00:41.893Z,13.4
2022-09-11T01:02:43.886Z,13.3
2022-09-11T01:04:49.013Z,13.3
2022-09-11T01:08:53.116Z,13.2
2022-09-11T01:10:55.149Z,13.2
2022-09-11T01:12:57.197Z,13.2
2022-09-11T01:14:59.262Z,13.2
2022-09-11T01:17:01.296Z,13.2
2022-09-11T01:19:06.405Z,13.2
2022-09-11T01:21:08.448Z,13.2
2022-09-11T01:23:10.502Z,13.1
2022-09-11T01:25:12.560Z,13.1
2022-09-11T01:27:14.577Z,13
2022-09-11T01:29:16.641Z,13
2022-09-11T01:31:18.762Z,13
2022-09-11T01:33:23.800Z,13
2022-09-11T01:35:25.876Z,13
2022-09-11T01:37:27.922Z,12.9
2022-09-11T01:38:30.496Z,12.9
2022-09-11T01:40:32.537Z,12.9
2022-09-11T01:42:36.115Z,12.8
2022-09-11T01:44:38.117Z,12.9
2022-09-11T01:46:43.218Z,12.8
2022-09-11T01:48:45.289Z,12.9
2022-09-11T01:50:47.315Z,12.8
2022-09-11T01:52:49.378Z,12.8
2022-09-11T01:54:51.413Z,12.9
2022-09-11T01:56:53.469Z,12.8
2022-09-11T01:58:55.502Z,12.7
2022-09-11T02:03:02.686Z,12.7
2022-09-11T02:05:04.705Z,12.7
2022-09-11T02:07:06.890Z,12.6
2022-09-11T02:11:10.868Z,12.5
2022-09-11T02:15:18.064Z,12.5
2022-09-11T02:17:20.081Z,12.4
2022-09-11T02:21:24.165Z,12.4
2022-09-11T02:23:26.196Z,12.3
2022-09-11T02:27:30.290Z,12.4
2022-09-11T02:29:35.377Z,12.4
2022-09-11T02:31:37.452Z,12.4
2022-09-11T02:33:39.616Z,12.4
2022-09-11T02:36:00.143Z,12.3
2022-09-11T02:40:04.318Z,12.2
2022-09-11T02:42:09.341Z,12.2
2022-09-11T02:46:13.432Z,12.2
2022-09-11T02:56:26.697Z,12.1
2022-09-11T03:00:30.771Z,12
2022-09-11T03:02:32.829Z,12
2022-09-11T03:04:34.890Z,11.9
2022-09-11T03:06:36.911Z,11.9
2022-09-11T03:08:38.940Z,12
2022-09-11T03:10:44.059Z,11.9
2022-09-11T03:12:46.101Z,11.9
2022-09-11T03:14:48.148Z,12
2022-09-11T03:16:50.175Z,12
2022-09-11T03:20:54.282Z,12
2022-09-11T03:22:56.312Z,12
2022-09-11T03:27:03.454Z,11.9
2022-09-11T03:29:05.480Z,12
2022-09-11T03:30:08.051Z,12
2022-09-11T03:32:10.098Z,11.9
2022-09-11T03:36:14.162Z,11.9
2022-09-11T03:38:19.250Z,11.9
2022-09-11T03:40:21.317Z,11.9
2022-09-11T03:42:23.364Z,11.8
2022-09-11T03:44:25.417Z,11.8
2022-09-11T03:46:27.441Z,11.8
2022-09-11T03:48:29.497Z,11.8
2022-09-11T03:50:31.547Z,11.7
2022-09-11T03:52:36.633Z,11.7
2022-09-11T03:54:38.674Z,11.7
2022-09-11T03:58:42.756Z,11.7
2022-09-11T04:00:44.856Z,11.8
2022-09-11T04:06:55.113Z,11.6
2022-09-11T04:08:56.048Z,11.6
2022-09-11T04:10:58.098Z,11.6
2022-09-11T04:13:00.152Z,11.6
2022-09-11T04:15:02.214Z,11.5
2022-09-11T04:17:04.227Z,11.5
2022-09-11T04:19:06.272Z,11.5
2022-09-11T04:21:11.386Z,11.5
2022-09-11T04:23:13.419Z,11.5
2022-09-11T04:25:15.476Z,11.5
2022-09-11T04:26:18.016Z,11.5
2022-09-11T04:28:20.105Z,11.5
2022-09-11T04:30:22.114Z,11.6
2022-09-11T04:32:24.168Z,11.6
2022-09-11T04:34:29.247Z,11.5
2022-09-11T04:36:31.303Z,11.5
2022-09-11T04:40:35.474Z,11.5
2022-09-11T04:42:37.467Z,11.5
2022-09-11T04:44:39.504Z,11.5
2022-09-11T04:50:48.705Z,11.4
2022-09-11T04:52:50.767Z,11.4
2022-09-11T04:54:52.793Z,11.4
2022-09-11T04:56:54.865Z,11.5
2022-09-11T04:58:56.933Z,11.5
2022-09-11T05:00:59.026Z,11.5
2022-09-11T05:03:04.079Z,11.4
2022-09-11T05:05:06.141Z,11.4
2022-09-11T05:11:12.283Z,11.4
2022-09-11T05:13:14.335Z,11.4
2022-09-11T05:15:16.431Z,11.4
2022-09-11T05:22:28.184Z,11.5
2022-09-11T05:24:30.241Z,11.5
2022-09-11T05:26:32.301Z,11.7
2022-09-11T05:28:34.336Z,11.7
2022-09-11T05:30:39.519Z,11.7
2022-09-11T05:32:41.513Z,11.7
2022-09-11T05:34:43.553Z,11.7
2022-09-11T05:38:47.645Z,11.8
2022-09-11T05:40:49.707Z,11.8
2022-09-11T05:42:51.766Z,11.9
2022-09-11T05:44:56.867Z,11.9
2022-09-11T05:46:58.910Z,12
2022-09-11T05:49:00.978Z,12.1
2022-09-11T05:51:02.996Z,12.2
2022-09-11T05:53:05.074Z,12.2
2022-09-11T05:55:07.131Z,12.2
2022-09-11T05:57:09.162Z,12.2
2022-09-11T06:01:16.391Z,12.5
2022-09-11T06:03:18.392Z,12.9
2022-09-11T06:05:20.446Z,13.8
2022-09-11T06:19:58.742Z,16.9
2022-09-11T06:22:00.855Z,17
2022-09-11T06:24:02.868Z,17.4
2022-09-11T06:26:07.983Z,18.4
2022-09-11T06:28:10.022Z,18.6
2022-09-11T06:30:12.091Z,19.1
2022-09-11T06:32:14.119Z,19.6
2022-09-11T06:36:18.549Z,20.3
2022-09-11T06:38:20.574Z,20.7
2022-09-11T06:40:25.673Z,21.2
2022-09-11T06:42:27.732Z,21.2
2022-09-11T06:44:29.745Z,21
2022-09-11T06:46:31.831Z,21.2
2022-09-11T06:48:33.851Z,21.8
2022-09-11T06:50:36.972Z,22.2
2022-09-11T06:54:43.023Z,22.6
2022-09-11T06:56:45.079Z,22.2
2022-09-11T06:58:47.075Z,20.3
2022-09-11T07:00:49.127Z,19.1
2022-09-11T07:02:51.148Z,18.4
2022-09-11T07:04:53.149Z,18
2022-09-11T07:06:55.188Z,17.6
2022-09-11T07:09:00.263Z,17.8
2022-09-11T07:11:02.310Z,17.7
2022-09-11T07:13:04.323Z,17.5
2022-09-11T07:14:06.857Z,17.5
2022-09-11T07:16:08.939Z,17.4
2022-09-11T07:18:10.885Z,17.3
2022-09-11T07:20:12.894Z,17.4
2022-09-11T07:22:18.001Z,17.4
2022-09-11T07:24:20.009Z,17.4
2022-09-11T07:26:22.033Z,17.5
2022-09-11T07:28:24.040Z,17.5
2022-09-11T07:30:26.080Z,17.6
2022-09-11T07:32:28.074Z,17.8
2022-09-11T07:34:31.641Z,17.8
2022-09-11T07:38:38.667Z,18.1
2022-09-11T07:40:40.721Z,18.2
2022-09-11T07:42:42.687Z,18.1
2022-09-11T07:44:44.693Z,18.2
2022-09-11T07:48:48.744Z,18.1
2022-09-11T07:50:53.821Z,18.4
2022-09-11T07:52:55.810Z,18.4
2022-09-11T07:54:57.836Z,18.3
2022-09-11T07:56:59.838Z,18.4
2022-09-11T07:59:01.858Z,18.5
2022-09-11T08:01:03.934Z,18.6
2022-09-11T08:03:05.865Z,18.7
2022-09-11T08:05:10.953Z,18.7
2022-09-11T08:07:12.956Z,18.7
2022-09-11T08:12:19.518Z,19
2022-09-11T08:14:21.535Z,18.9
2022-09-11T08:16:23.599Z,19
2022-09-11T08:18:28.631Z,19.1
2022-09-11T08:20:30.636Z,19.1
2022-09-11T08:22:32.598Z,19.3
2022-09-11T08:24:34.642Z,19.6
2022-09-11T08:26:36.604Z,19.2
2022-09-11T08:28:38.598Z,19.4
2022-09-11T08:30:40.597Z,19.4
2022-09-11T08:32:45.669Z,19.4
2022-09-11T08:34:47.666Z,19.6
2022-09-11T08:36:49.660Z,19.8
2022-09-11T08:38:51.654Z,19.8
2022-09-11T08:42:55.623Z,20.3
2022-09-11T08:49:04.681Z,20.1
2022-09-11T08:53:12.661Z,19.9
2022-09-11T08:55:10.584Z,19.8
2022-09-11T08:57:12.579Z,19.9
2022-09-11T08:59:14.549Z,20.2
2022-09-11T09:01:23.740Z,19.9
2022-09-11T09:03:21.578Z,19.9
2022-09-11T09:05:23.538Z,20
2022-09-11T09:06:26.066Z,20
2022-09-11T09:08:28.063Z,20.1
2022-09-11T09:10:29.993Z,20.3
2022-09-11T09:12:31.965Z,20.5
2022-09-11T09:16:38.979Z,20.2
2022-09-11T09:22:44.885Z,19.8
2022-09-11T09:24:46.847Z,19.7
2022-09-11T09:26:48.810Z,19.5
2022-09-11T09:28:53.850Z,19.4
2022-09-11T09:30:55.902Z,19.4
2022-09-11T09:32:57.783Z,19.4
2022-09-11T09:34:59.759Z,19.3
2022-09-11T09:37:01.723Z,19.3
2022-09-11T09:39:03.680Z,19.3
2022-09-11T09:41:05.672Z,19.3
2022-09-11T09:43:10.720Z,19.3
2022-09-11T09:45:12.692Z,19.3
2022-09-11T09:47:14.688Z,19.5
2022-09-11T09:51:18.657Z,20.6
2022-09-11T09:53:20.597Z,21
2022-09-11T09:55:22.558Z,21.5
2022-09-11T09:57:27.615Z,21.6
2022-09-11T09:59:29.577Z,21.7
2022-09-11T10:01:31.614Z,21.8
2022-09-11T10:03:53.994Z,22.1
2022-09-11T10:07:58.017Z,22.6
2022-09-11T10:10:02.960Z,22.4
2022-09-11T10:14:10.161Z,22.7
2022-09-11T10:16:08.861Z,22.9
2022-09-11T10:18:10.718Z,23.6
2022-09-11T10:20:12.661Z,23.6
2022-09-11T10:24:19.605Z,22.8
2022-09-11T10:26:21.509Z,22.8
2022-09-11T10:28:23.444Z,22.6
2022-09-11T10:32:27.321Z,21.9
2022-09-11T10:34:29.217Z,21.5
2022-09-11T10:36:31.118Z,21.3
2022-09-11T10:38:41.119Z,21
2022-09-11T10:40:38.059Z,21
2022-09-11T10:42:39.986Z,21.2
2022-09-11T10:44:41.932Z,21.1
2022-09-11T10:46:43.862Z,21
2022-09-11T10:48:45.767Z,20.7
2022-09-11T10:50:47.691Z,20.5
2022-09-11T10:52:52.781Z,20.5
2022-09-11T10:54:54.680Z,20.5
2022-09-11T10:56:56.606Z,20.6
2022-09-11T10:57:59.100Z,20.9
2022-09-11T11:00:01.072Z,20.9
2022-09-11T11:06:09.931Z,24.8
2022-09-11T11:08:11.854Z,25.2
2022-09-11T11:10:13.789Z,25.8
2022-09-11T11:12:15.707Z,26.6
2022-09-11T11:14:17.642Z,26.6
2022-09-11T11:16:19.591Z,26.9
2022-09-11T11:18:21.435Z,26.6
2022-09-11T11:20:29.205Z,27.3
2022-09-11T11:22:28.364Z,28
2022-09-11T11:24:30.244Z,27.4
2022-09-11T11:26:32.120Z,27.7
2022-09-11T11:28:34.063Z,25.2
2022-09-11T11:30:35.893Z,27
2022-09-11T11:32:37.775Z,27.7
2022-09-11T11:34:42.727Z,28.8
2022-09-11T11:36:44.596Z,28.9
2022-09-11T11:38:46.469Z,27.2
2022-09-11T11:40:48.320Z,24.5
2022-09-11T11:42:55.373Z,23.8
2022-09-11T11:44:52.063Z,24.4
2022-09-11T11:46:53.889Z,23.6
2022-09-11T11:48:58.874Z,25.9
2022-09-11T11:51:00.906Z,26.4
2022-09-11T11:53:02.595Z,27.1
2022-09-11T11:54:05.094Z,27.5
2022-09-11T11:56:07.243Z,27.7
2022-09-11T11:58:08.808Z,25.7
2022-09-11T12:00:10.647Z,24.3
2022-09-11T12:02:15.650Z,23.9
2022-09-11T12:04:17.464Z,23.5
2022-09-11T12:06:19.340Z,22.9
2022-09-11T12:08:21.203Z,22.5
2022-09-11T12:10:23.044Z,22.3
2022-09-11T12:12:24.932Z,22.1
2022-09-11T12:14:26.795Z,22.1
2022-09-11T12:16:32.057Z,21.9
2022-09-11T12:18:33.677Z,22.2
2022-09-11T12:20:35.534Z,22.2
2022-09-11T12:22:37.432Z,21.8
2022-09-11T12:24:39.315Z,22.3
2022-09-11T12:26:41.199Z,22.6
2022-09-11T12:28:43.186Z,22
2022-09-11T12:30:48.113Z,23.3
2022-09-11T12:32:50.001Z,23.8
2022-09-11T12:40:57.581Z,24.1
2022-09-11T12:42:59.489Z,24
2022-09-11T12:49:21.629Z,24.7
2022-09-11T12:50:10.852Z,24.6
2022-09-11T12:58:21.395Z,22.2
2022-09-11T13:00:23.257Z,22.2
2022-09-11T13:02:25.191Z,22.3
2022-09-11T13:08:30.817Z,22.1
2022-09-11T13:10:32.704Z,22.1
2022-09-11T13:12:37.824Z,22.5
2022-09-11T13:14:39.602Z,22.7
2022-09-11T13:16:41.484Z,22.9
2022-09-11T13:18:43.580Z,23.5
2022-09-11T13:24:49.073Z,24
2022-09-11T13:30:59.298Z,24.1
2022-09-11T13:33:01.164Z,24.3
2022-09-11T13:43:13.591Z,24.6
2022-09-11T13:45:15.479Z,24.4
2022-09-11T13:47:31.923Z,24.1
2022-09-11T13:49:33.779Z,24.2
2022-09-11T13:51:35.607Z,24.6
2022-09-11T13:53:40.696Z,24.6
2022-09-11T13:55:42.448Z,24.6
2022-09-11T13:57:44.258Z,24.6
2022-09-11T13:59:46.075Z,25.1
2022-09-11T14:01:47.964Z,24.9
2022-09-11T14:03:49.751Z,24.9
2022-09-11T14:05:51.588Z,25.6
2022-09-11T14:07:56.482Z,24.9
2022-09-11T14:09:58.309Z,25.1
2022-09-11T14:12:00.142Z,24.9
2022-09-11T14:14:01.931Z,24.9
2022-09-11T14:16:03.923Z,25.1
2022-09-11T14:18:05.563Z,25.4
2022-09-11T14:20:07.379Z,25.1
2022-09-11T14:22:12.388Z,25.4
2022-09-11T14:28:17.659Z,24.3
2022-09-11T14:30:19.440Z,23.6
2022-09-11T14:32:21.227Z,23.1
2022-09-11T14:34:23.030Z,22.8
2022-09-11T14:36:27.965Z,22.8
2022-09-11T14:38:29.787Z,22.8
2022-09-11T14:40:31.601Z,22.9
2022-09-11T14:41:34.075Z,22.9
2022-09-11T14:43:35.894Z,22.8
2022-09-11T14:45:37.738Z,22.7
2022-09-11T14:47:39.556Z,22.6
2022-09-11T14:49:44.535Z,22.7
2022-09-11T14:51:46.393Z,22.4
2022-09-11T14:53:48.244Z,22.3
2022-09-11T14:55:50.151Z,22.3
2022-09-11T14:57:51.996Z,22.2
2022-09-11T14:59:54.054Z,22.2
2022-09-11T15:01:55.746Z,22.5
2022-09-11T15:04:00.772Z,22.8
2022-09-11T15:06:02.588Z,22.8
2022-09-11T15:08:04.473Z,23
2022-09-11T15:10:06.354Z,23.2
2022-09-11T15:12:08.235Z,23.1
2022-09-11T15:14:23.320Z,23
2022-09-11T15:16:12.056Z,23.3
2022-09-11T15:18:16.958Z,24
2022-09-11T15:20:18.849Z,24.2
2022-09-11T15:22:20.710Z,23.8
2022-09-11T15:24:22.581Z,23.8
2022-09-11T15:26:24.463Z,24.2
2022-09-11T15:28:26.298Z,24.4
2022-09-11T15:30:28.143Z,24.6
2022-09-11T15:37:39.297Z,23.3
2022-09-11T15:39:41.158Z,23
2022-09-11T15:41:42.972Z,23.4
2022-09-11T15:43:44.947Z,23.5
2022-09-11T15:45:49.803Z,22.7
2022-09-11T15:47:51.616Z,22.8
2022-09-11T15:49:53.478Z,22.6
2022-09-11T15:53:57.190Z,22.8
2022-09-11T15:55:59.067Z,22.4
2022-09-11T15:58:00.935Z,22.3
2022-09-11T16:00:05.939Z,21.9
2022-09-11T16:02:07.853Z,21.8
2022-09-11T16:04:09.692Z,21.8
2022-09-11T16:06:11.571Z,21.9
2022-09-11T16:08:13.473Z,21.8
2022-09-11T16:10:15.363Z,21.9
2022-09-11T16:12:17.274Z,21.7
2022-09-11T16:14:22.274Z,21.7
2022-09-11T16:16:24.237Z,21.6
2022-09-11T16:18:26.096Z,21.5
2022-09-11T16:20:28.003Z,21.3
2022-09-11T16:22:29.957Z,21.3
2022-09-11T16:24:31.881Z,21.2
2022-09-11T16:26:33.783Z,21.2
2022-09-11T16:28:38.842Z,21.1
2022-09-11T16:30:43.911Z,21.1
2022-09-11T16:32:42.689Z,20.9
2022-09-11T16:33:45.420Z,20.9
2022-09-11T16:35:47.177Z,20.8
2022-09-11T16:37:49.111Z,20.8
2022-09-11T16:39:51.168Z,20.7
2022-09-11T16:43:58.041Z,20.5
2022-09-11T16:46:00.082Z,20.5
2022-09-11T16:48:01.931Z,20.5
2022-09-11T16:50:08.105Z,20.5
2022-09-11T16:52:05.860Z,20.4
2022-09-11T16:54:07.798Z,20.4
2022-09-11T16:56:12.857Z,20.4
2022-09-11T16:58:14.853Z,20.4
2022-09-11T17:00:16.811Z,20.4
2022-09-11T17:02:18.787Z,20.3
2022-09-11T17:10:29.731Z,20
2022-09-11T17:16:35.670Z,19.9
2022-09-11T17:18:37.611Z,19.8
2022-09-11T17:20:39.611Z,19.8
2022-09-11T17:24:46.669Z,19.6
2022-09-11T17:26:48.654Z,19.5
2022-09-11T17:28:50.619Z,19.4
2022-09-11T17:31:07.662Z,19.3
2022-09-11T17:33:09.613Z,19.2
2022-09-11T17:35:11.592Z,19
2022-09-11T17:39:18.656Z,18.8
2022-09-11T17:41:20.644Z,18.7
2022-09-11T17:45:24.646Z,18.5
2022-09-11T17:47:26.641Z,18.5
2022-09-11T17:49:28.621Z,18.4
2022-09-11T17:55:37.717Z,17.9
2022-09-11T17:59:41.727Z,17.8
2022-09-11T18:01:43.809Z,17.7
2022-09-11T18:03:45.803Z,17.6
2022-09-11T18:05:50.849Z,17.4
2022-09-11T18:07:52.845Z,17.4
2022-09-11T18:09:56.508Z,17.4
2022-09-11T18:11:56.873Z,17.3
2022-09-11T18:13:58.874Z,17.2
2022-09-11T18:16:00.939Z,17.2
2022-09-11T18:18:02.930Z,17.1
2022-09-11T18:20:08.008Z,16.9
2022-09-11T18:22:10.155Z,17
2022-09-11T18:24:12.068Z,16.9
2022-09-11T18:25:14.585Z,16.9
2022-09-11T18:29:19.937Z,16.8
2022-09-11T18:31:20.731Z,16.8
2022-09-11T18:35:27.793Z,16.7
2022-09-11T18:43:35.914Z,16.6
2022-09-11T18:45:37.942Z,16.6
2022-09-11T18:47:43.022Z,16.5
2022-09-11T18:49:45.053Z,16.6
2022-09-11T18:51:47.072Z,16.5
2022-09-11T18:53:49.116Z,16.5
2022-09-11T18:55:51.130Z,16.5
2022-09-11T18:57:53.176Z,16.5
2022-09-11T19:02:00.459Z,16.6
2022-09-11T19:04:02.371Z,16.6
2022-09-11T19:06:04.356Z,16.6
2022-09-11T19:10:08.826Z,16.7
2022-09-11T19:12:10.444Z,16.8
2022-09-11T19:14:12.459Z,16.8
2022-09-11T19:16:19.119Z,16.8
2022-09-11T19:18:21.061Z,16.8
2022-09-11T19:20:23.079Z,16.8
2022-09-11T19:21:25.653Z,16.8
2022-09-11T19:23:27.652Z,16.8
2022-09-11T19:25:29.669Z,16.8
2022-09-11T19:27:31.711Z,16.8
2022-09-11T19:31:38.863Z,16.9
2022-09-11T19:33:40.943Z,16.9
2022-09-11T19:35:42.856Z,16.9
2022-09-11T19:39:46.966Z,16.7
2022-09-11T19:41:48.932Z,16.7
2022-09-11T19:43:54.029Z,16.5
2022-09-11T19:45:56.051Z,16.5
2022-09-11T19:47:58.069Z,16.4
2022-09-11T19:50:00.466Z,16.4
2022-09-11T19:52:02.140Z,16.4
2022-09-11T19:54:04.188Z,16.3
2022-09-11T19:56:06.227Z,16.3
2022-09-11T20:00:13.314Z,16.3
2022-09-11T20:06:19.406Z,16.2
2022-09-11T20:08:21.438Z,16.2
2022-09-11T20:12:33.073Z,16.1
2022-09-11T20:16:32.643Z,16
2022-09-11T20:17:35.166Z,16
2022-09-11T20:19:37.249Z,15.9
2022-09-11T20:21:39.223Z,15.9
2022-09-11T20:23:41.248Z,15.8
2022-09-11T20:25:46.364Z,15.8
2022-09-11T20:27:48.370Z,15.7
2022-09-11T20:29:50.691Z,15.7
2022-09-11T20:31:52.502Z,15.6
2022-09-11T20:33:54.566Z,15.6
2022-09-11T20:35:56.516Z,15.6
2022-09-11T20:38:00.360Z,15.5
2022-09-11T20:40:03.685Z,15.4
2022-09-11T20:42:05.696Z,15.4
2022-09-11T20:44:07.732Z,15.3
2022-09-11T20:50:13.856Z,15.2
2022-09-11T20:52:15.883Z,15.1
2022-09-11T20:54:20.996Z,15
2022-09-11T20:56:23.021Z,15
2022-09-11T20:58:25.048Z,15
2022-09-11T21:06:33.236Z,14.9
2022-09-11T21:12:42.420Z,14.8
2022-09-11T21:15:03.169Z,14.7
2022-09-11T21:17:05.219Z,14.7
2022-09-11T21:21:12.337Z,14.5
2022-09-11T21:23:14.394Z,14.6
2022-09-11T21:25:16.427Z,14.5
2022-09-11T21:31:22.625Z,14.5
2022-09-11T21:37:31.779Z,14.4
2022-09-11T21:39:33.812Z,14.4
2022-09-11T21:41:35.873Z,14.4
2022-09-11T21:43:37.914Z,14.3
2022-09-11T21:45:39.966Z,14.3
2022-09-11T21:47:42.019Z,14.3
2022-09-11T21:49:47.127Z,14.2
2022-09-11T21:51:49.167Z,14.1
2022-09-11T21:53:51.214Z,14.1
2022-09-11T21:55:53.267Z,14.1
2022-09-11T21:57:55.315Z,14
2022-09-11T21:59:57.364Z,14
2022-09-11T22:01:59.451Z,14
2022-09-11T22:04:04.543Z,13.9
2022-09-11T22:06:06.608Z,13.9
2022-09-11T22:09:11.195Z,13.9
2022-09-11T22:11:13.250Z,13.9
2022-09-11T22:13:15.297Z,13.9
2022-09-11T22:15:17.369Z,13.9
2022-09-11T22:17:22.478Z,13.9
2022-09-11T22:19:24.531Z,13.9
2022-09-11T22:21:26.581Z,13.8
2022-09-11T22:23:28.643Z,13.8
2022-09-11T22:27:32.718Z,13.8
2022-09-11T22:29:34.792Z,13.7
2022-09-11T22:31:39.933Z,13.6
2022-09-11T22:33:42.035Z,13.6
2022-09-11T22:35:47.703Z,13.6
2022-09-11T22:41:50.163Z,13.5
2022-09-11T22:43:52.211Z,13.5
2022-09-11T22:45:57.372Z,13.4
2022-09-11T22:47:59.384Z,13.4
2022-09-11T22:50:01.414Z,13.4
2022-09-11T22:52:03.447Z,13.3
2022-09-11T22:54:05.494Z,13.3
2022-09-11T22:56:07.557Z,13.3
2022-09-11T22:58:09.596Z,13.2
2022-09-11T23:00:14.718Z,13.2
2022-09-11T23:02:16.763Z,13.2
2022-09-11T23:04:18.803Z,13.2
2022-09-11T23:07:23.409Z,13.2
2022-09-11T23:09:25.450Z,13.2
2022-09-11T23:11:27.554Z,13.2
2022-09-11T23:13:32.606Z,13.1
2022-09-11T23:15:34.636Z,13.1
2022-09-11T23:17:36.694Z,13.1
2022-09-11T23:19:38.766Z,13.1
2022-09-11T23:23:42.949Z,13
2022-09-11T23:25:44.905Z,13
2022-09-11T23:27:52.403Z,12.9
2022-09-11T23:29:52.090Z,12.9
2022-09-11T23:31:54.143Z,12.9
2022-09-11T23:33:56.173Z,12.9
2022-09-11T23:35:58.206Z,12.9
2022-09-11T23:38:00.256Z,12.8
2022-09-11T23:40:02.368Z,12.8
2022-09-11T23:42:07.415Z,12.8
2022-09-11T23:44:09.494Z,12.8
2022-09-11T23:48:13.599Z,12.8
2022-09-11T23:50:15.645Z,12.8
2022-09-11T23:54:19.743Z,12.7
2022-09-11T23:56:24.860Z,12.7
2022-09-11T23:58:26.925Z,12.6
